createdAt,value
2024-02-13T00:01:31.652Z,100.00
2024-02-13T00:03:33.374Z,100.00
2024-02-13T00:05:35.074Z,100.00
2024-02-13T00:07:38.003Z,100.00
2024-02-13T00:09:39.660Z,100.00
2024-02-13T00:11:42.287Z,100.00
2024-02-13T00:13:43.873Z,100.00
2024-02-13T00:15:45.540Z,100.00
2024-02-13T00:17:48.092Z,100.00
2024-02-13T00:19:50.316Z,100.00
2024-02-13T00:21:52.040Z,100.00
2024-02-13T00:23:53.802Z,100.00
2024-02-13T00:25:55.397Z,100.00
2024-02-13T00:27:57.215Z,100.00
2024-02-13T00:29:58.885Z,100.00
2024-02-13T00:32:00.432Z,100.00
2024-02-13T00:34:02.171Z,100.00
2024-02-13T00:36:04.513Z,100.00
2024-02-13T00:38:06.066Z,100.00
2024-02-13T00:40:09.496Z,100.00
2024-02-13T00:42:11.151Z,100.00
2024-02-13T00:44:12.736Z,100.00
2024-02-13T00:46:14.307Z,100.00
2024-02-13T00:48:17.010Z,100.00
2024-02-13T00:50:18.856Z,100.00
2024-02-13T00:52:20.589Z,100.00
2024-02-13T00:54:22.767Z,100.00
2024-02-13T00:56:24.355Z,100.00
2024-02-13T00:58:26.138Z,100.00
2024-02-13T01:00:27.910Z,100.00
2024-02-13T01:02:29.627Z,100.00
2024-02-13T01:04:31.521Z,100.00
2024-02-13T01:06:34.559Z,100.00
2024-02-13T01:08:36.595Z,100.00
2024-02-13T01:10:38.417Z,100.00
2024-02-13T01:12:40.119Z,100.00
2024-02-13T01:14:41.701Z,100.00
2024-02-13T01:16:43.246Z,100.00
2024-02-13T01:18:45.354Z,100.00
2024-02-13T01:20:47.095Z,100.00
2024-02-13T01:22:48.687Z,100.00
2024-02-13T01:24:50.290Z,100.00
2024-02-13T01:26:51.882Z,100.00
2024-02-13T01:28:53.429Z,100.00
2024-02-13T01:30:55.146Z,100.00
2024-02-13T01:32:56.826Z,100.00
2024-02-13T01:34:58.739Z,100.00
2024-02-13T01:37:00.566Z,100.00
2024-02-13T01:39:02.287Z,100.00
2024-02-13T01:41:04.075Z,100.00
2024-02-13T01:43:06.089Z,100.00
2024-02-13T01:45:08.696Z,100.00
2024-02-13T01:47:10.359Z,100.00
2024-02-13T01:49:12.838Z,100.00
2024-02-13T01:51:16.820Z,100.00
2024-02-13T01:53:21.327Z,100.00
2024-02-13T01:55:24.289Z,100.00
2024-02-13T01:57:25.886Z,100.00
2024-02-13T01:59:27.868Z,100.00
2024-02-13T02:01:29.454Z,100.00
2024-02-13T02:03:35.678Z,100.00
2024-02-13T02:05:37.878Z,100.00
2024-02-13T02:07:40.917Z,100.00
2024-02-13T02:09:43.742Z,100.00
2024-02-13T02:11:45.469Z,100.00
2024-02-13T02:13:47.004Z,100.00
2024-02-13T02:15:48.452Z,100.00
2024-02-13T02:17:51.198Z,100.00
2024-02-13T02:19:52.708Z,100.00
2024-02-13T02:21:54.160Z,100.00
2024-02-13T02:23:56.165Z,100.00
2024-02-13T02:25:57.711Z,100.00
2024-02-13T02:27:59.163Z,100.00
2024-02-13T02:30:00.879Z,100.00
2024-02-13T02:32:02.393Z,100.00
2024-02-13T02:34:04.031Z,100.00
2024-02-13T02:36:06.285Z,100.00
2024-02-13T02:38:08.243Z,100.00
2024-02-13T02:40:10.118Z,100.00
2024-02-13T02:42:11.930Z,100.00
2024-02-13T02:44:14.142Z,100.00
2024-02-13T02:46:15.689Z,100.00
2024-02-13T02:48:17.321Z,100.00
2024-02-13T02:50:19.080Z,100.00
2024-02-13T02:52:20.590Z,100.00
2024-02-13T02:54:22.083Z,100.00
2024-02-13T02:56:23.576Z,100.00
2024-02-13T02:58:25.109Z,100.00
2024-02-13T03:00:26.998Z,100.00
2024-02-13T03:02:28.457Z,100.00
2024-02-13T03:04:29.993Z,100.00
2024-02-13T03:06:32.434Z,100.00
2024-02-13T03:08:34.109Z,100.00
2024-02-13T03:10:35.608Z,100.00
2024-02-13T03:12:38.154Z,100.00
2024-02-13T03:14:39.725Z,100.00
2024-02-13T03:16:41.238Z,100.00
2024-02-13T03:18:42.921Z,100.00
2024-02-13T03:20:45.281Z,100.00
2024-02-13T03:22:46.785Z,100.00
2024-02-13T03:24:48.436Z,100.00
2024-02-13T03:26:49.936Z,100.00
2024-02-13T03:28:51.504Z,100.00
2024-02-13T03:30:53.019Z,100.00
2024-02-13T03:32:54.750Z,100.00
2024-02-13T03:34:57.831Z,100.00
2024-02-13T03:36:59.829Z,100.00
2024-02-13T03:39:01.311Z,100.00
2024-02-13T03:41:02.790Z,100.00
2024-02-13T03:43:04.767Z,100.00
2024-02-13T03:45:06.636Z,100.00
2024-02-13T03:47:08.101Z,100.00
2024-02-13T03:49:10.368Z,100.00
2024-02-13T03:51:11.913Z,100.00
2024-02-13T03:53:13.643Z,100.00
2024-02-13T03:55:15.488Z,100.00
2024-02-13T03:57:16.961Z,100.00
2024-02-13T03:59:18.601Z,100.00
2024-02-13T04:01:20.118Z,100.00
2024-02-13T04:03:21.583Z,100.00
2024-02-13T04:05:23.230Z,100.00
2024-02-13T04:07:25.036Z,100.00
2024-02-13T04:09:26.488Z,100.00
2024-02-13T04:11:28.135Z,100.00
2024-02-13T04:13:29.739Z,100.00
2024-02-13T04:15:31.206Z,100.00
2024-02-13T04:17:32.770Z,100.00
2024-02-13T04:19:34.395Z,100.00
2024-02-13T04:21:35.897Z,100.00
2024-02-13T04:23:37.625Z,100.00
2024-02-13T04:25:39.199Z,100.00
2024-02-13T04:27:40.680Z,100.00
2024-02-13T04:29:42.466Z,100.00
2024-02-13T04:31:44.020Z,100.00
2024-02-13T04:33:45.821Z,100.00
2024-02-13T04:35:47.711Z,100.00
2024-02-13T04:37:49.193Z,100.00
2024-02-13T04:39:50.662Z,100.00
2024-02-13T04:41:52.264Z,100.00
2024-02-13T04:43:53.759Z,100.00
2024-02-13T04:45:55.199Z,100.00
2024-02-13T04:47:56.742Z,100.00
2024-02-13T04:50:00.941Z,100.00
2024-02-13T04:52:02.399Z,100.00
2024-02-13T04:54:04.158Z,100.00
2024-02-13T04:56:05.849Z,100.00
2024-02-13T04:58:07.331Z,100.00
2024-02-13T05:00:09.330Z,100.00
2024-02-13T05:02:10.858Z,100.00
2024-02-13T05:04:12.454Z,100.00
2024-02-13T05:06:14.757Z,100.00
2024-02-13T05:08:16.856Z,100.00
2024-02-13T05:10:18.376Z,100.00
2024-02-13T05:12:19.970Z,100.00
2024-02-13T05:14:21.598Z,100.00
2024-02-13T05:16:23.966Z,100.00
2024-02-13T05:18:25.837Z,100.00
2024-02-13T05:20:27.527Z,100.00
2024-02-13T05:22:28.992Z,100.00
2024-02-13T05:24:30.576Z,100.00
2024-02-13T05:26:32.129Z,100.00
2024-02-13T05:28:33.609Z,100.00
2024-02-13T05:30:35.430Z,100.00
2024-02-13T05:32:37.309Z,100.00
2024-02-13T05:34:38.893Z,100.00
2024-02-13T05:36:40.402Z,100.00
2024-02-13T05:38:43.455Z,100.00
2024-02-13T05:40:44.918Z,100.00
2024-02-13T05:42:46.536Z,100.00
2024-02-13T05:44:48.256Z,100.00
2024-02-13T05:46:49.817Z,100.00
2024-02-13T05:48:51.286Z,100.00
2024-02-13T05:50:52.933Z,100.00
2024-02-13T05:52:54.568Z,100.00
2024-02-13T05:54:56.348Z,100.00
2024-02-13T05:56:57.932Z,100.00
2024-02-13T05:59:00.074Z,100.00
2024-02-13T06:01:01.839Z,100.00
2024-02-13T06:03:03.811Z,100.00
2024-02-13T06:05:05.711Z,100.00
2024-02-13T06:07:07.319Z,100.00
2024-02-13T06:09:09.040Z,100.00
2024-02-13T06:11:10.654Z,100.00
2024-02-13T06:13:12.310Z,100.00
2024-02-13T06:15:13.851Z,100.00
2024-02-13T06:17:15.360Z,100.00
2024-02-13T06:19:17.173Z,100.00
2024-02-13T06:21:19.211Z,100.00
2024-02-13T06:23:21.567Z,100.00
2024-02-13T06:25:23.169Z,100.00
2024-02-13T06:27:24.761Z,100.00
2024-02-13T06:29:26.261Z,100.00
2024-02-13T06:31:32.705Z,100.00
2024-02-13T06:33:34.428Z,100.00
2024-02-13T06:35:36.076Z,100.00
2024-02-13T06:37:37.583Z,100.00
2024-02-13T06:39:39.187Z,100.00
2024-02-13T06:41:41.281Z,100.00
2024-02-13T06:43:42.821Z,100.00
2024-02-13T06:45:44.581Z,100.00
2024-02-13T06:47:46.087Z,100.00
2024-02-13T06:49:47.705Z,100.00
2024-02-13T06:51:49.294Z,100.00
2024-02-13T06:53:50.957Z,100.00
2024-02-13T06:55:52.586Z,100.00
2024-02-13T06:57:54.089Z,100.00
2024-02-13T06:59:55.741Z,100.00
2024-02-13T07:01:57.507Z,100.00
2024-02-13T07:03:59.072Z,100.00
2024-02-13T07:06:00.756Z,100.00
2024-02-13T07:08:02.529Z,100.00
2024-02-13T07:10:05.078Z,100.00
2024-02-13T07:12:06.962Z,100.00
2024-02-13T07:14:08.486Z,100.00
2024-02-13T07:16:09.980Z,100.00
2024-02-13T07:18:14.540Z,100.00
2024-02-13T07:20:16.378Z,100.00
2024-02-13T07:22:18.392Z,100.00
2024-02-13T07:24:19.865Z,100.00
2024-02-13T07:26:21.534Z,100.00
2024-02-13T07:28:23.037Z,100.00
2024-02-13T07:30:24.584Z,100.00
2024-02-13T07:32:26.252Z,100.00
2024-02-13T07:34:28.261Z,100.00
2024-02-13T07:36:29.823Z,100.00
2024-02-13T07:38:31.421Z,100.00
2024-02-13T07:40:33.241Z,100.00
2024-02-13T07:42:34.832Z,100.00
2024-02-13T07:44:36.327Z,100.00
2024-02-13T07:46:38.221Z,100.00
2024-02-13T07:48:39.780Z,100.00
2024-02-13T07:50:41.385Z,100.00
2024-02-13T07:52:42.916Z,100.00
2024-02-13T07:54:45.550Z,100.00
2024-02-13T07:56:47.089Z,100.00
2024-02-13T07:58:48.629Z,100.00
2024-02-13T08:00:50.376Z,100.00
2024-02-13T08:02:51.936Z,100.00
2024-02-13T08:04:53.705Z,100.00
2024-02-13T08:06:55.264Z,100.00
2024-02-13T08:08:56.787Z,100.00
2024-02-13T08:10:58.581Z,100.00
2024-02-13T08:13:00.226Z,100.00
2024-02-13T08:15:01.765Z,100.00
2024-02-13T08:17:06.365Z,100.00
2024-02-13T08:19:08.090Z,100.00
2024-02-13T08:21:09.694Z,100.00
2024-02-13T08:23:12.599Z,100.00
2024-02-13T08:25:14.165Z,100.00
2024-02-13T08:27:15.647Z,100.00
2024-02-13T08:29:17.234Z,100.00
2024-02-13T08:31:18.760Z,100.00
2024-02-13T08:33:20.667Z,100.00
2024-02-13T08:35:22.530Z,100.00
2024-02-13T08:37:24.315Z,100.00
2024-02-13T08:39:25.768Z,100.00
2024-02-13T08:41:27.452Z,100.00
2024-02-13T08:43:29.007Z,100.00
2024-02-13T08:45:30.515Z,100.00
2024-02-13T08:47:32.089Z,100.00
2024-02-13T08:49:33.901Z,100.00
2024-02-13T08:51:37.878Z,100.00
2024-02-13T08:53:40.504Z,100.00
2024-02-13T08:55:42.297Z,100.00
2024-02-13T08:57:43.778Z,100.00
2024-02-13T08:59:45.404Z,100.00
2024-02-13T09:01:47.068Z,100.00
2024-02-13T09:03:49.284Z,100.00
2024-02-13T09:05:50.880Z,100.00
2024-02-13T09:07:52.580Z,100.00
2024-02-13T09:09:54.070Z,100.00
2024-02-13T09:11:55.646Z,100.00
2024-02-13T09:13:57.541Z,100.00
2024-02-13T09:15:58.990Z,100.00
2024-02-13T09:18:00.757Z,100.00
2024-02-13T09:20:02.630Z,100.00
2024-02-13T09:22:04.320Z,100.00
2024-02-13T09:24:06.595Z,100.00
2024-02-13T09:26:08.238Z,100.00
2024-02-13T09:28:09.694Z,100.00
2024-02-13T09:30:11.797Z,100.00
2024-02-13T09:32:13.601Z,100.00
2024-02-13T09:34:15.334Z,100.00
2024-02-13T09:36:17.273Z,100.00
2024-02-13T09:38:19.144Z,100.00
2024-02-13T09:40:21.345Z,100.00
2024-02-13T09:42:24.851Z,100.00
2024-02-13T09:44:26.794Z,100.00
2024-02-13T09:46:28.641Z,100.00
2024-02-13T09:48:34.497Z,100.00
2024-02-13T09:50:43.943Z,100.00
2024-02-13T09:52:53.285Z,100.00
2024-02-13T09:54:54.877Z,100.00
2024-02-13T09:56:56.809Z,100.00
2024-02-13T09:58:59.830Z,100.00
2024-02-13T10:01:02.135Z,100.00
2024-02-13T10:03:04.715Z,100.00
2024-02-13T10:05:08.442Z,100.00
2024-02-13T10:07:10.125Z,100.00
2024-02-13T10:09:13.061Z,100.00
2024-02-13T10:11:14.814Z,100.00
2024-02-13T10:13:16.435Z,100.00
2024-02-13T10:15:17.905Z,100.00
2024-02-13T10:17:19.468Z,100.00
2024-02-13T10:19:21.061Z,100.00
2024-02-13T10:21:25.960Z,100.00
2024-02-13T10:23:27.756Z,100.00
2024-02-13T10:25:29.306Z,100.00
2024-02-13T10:27:30.775Z,100.00
2024-02-13T10:29:44.852Z,100.00
2024-02-13T10:31:46.767Z,100.00
2024-02-13T10:33:48.325Z,100.00
2024-02-13T10:35:50.189Z,100.00
2024-02-13T10:37:51.820Z,100.00
2024-02-13T10:39:55.760Z,100.00
2024-02-13T10:41:59.203Z,100.00
2024-02-13T10:44:01.126Z,100.00
2024-02-13T10:46:05.046Z,100.00
2024-02-13T10:48:31.959Z,100.00
2024-02-13T10:50:35.370Z,100.00
2024-02-13T10:52:38.314Z,100.00
2024-02-13T10:54:44.179Z,100.00
2024-02-13T10:56:46.721Z,100.00
2024-02-13T10:58:50.602Z,100.00
2024-02-13T11:00:53.321Z,100.00
2024-02-13T11:02:55.361Z,100.00
2024-02-13T11:04:58.283Z,100.00
2024-02-13T11:07:00.166Z,100.00
2024-02-13T11:09:02.810Z,100.00
2024-02-13T11:11:15.767Z,100.00
2024-02-13T11:13:20.342Z,100.00
2024-02-13T11:15:25.513Z,100.00
2024-02-13T11:17:30.911Z,100.00
2024-02-13T11:19:47.551Z,100.00
2024-02-13T11:21:51.994Z,100.00
2024-02-13T11:23:58.748Z,100.00
2024-02-13T11:26:01.303Z,100.00
2024-02-13T11:28:06.005Z,100.00
2024-02-13T11:30:07.908Z,100.00
2024-02-13T11:32:09.456Z,100.00
2024-02-13T11:34:11.835Z,100.00
2024-02-13T11:36:13.694Z,100.00
2024-02-13T11:38:18.638Z,100.00
2024-02-13T11:40:20.633Z,100.00
2024-02-13T11:42:22.299Z,100.00
2024-02-13T11:44:24.287Z,100.00
2024-02-13T11:46:25.891Z,100.00
2024-02-13T11:48:31.580Z,99.10
2024-02-13T11:50:36.794Z,100.00
2024-02-13T11:52:38.628Z,97.46
2024-02-13T11:54:40.385Z,99.60
2024-02-13T11:56:42.400Z,100.00
2024-02-13T11:58:44.146Z,100.00
2024-02-13T12:00:56.103Z,100.00
2024-02-13T12:02:58.162Z,100.00
2024-02-13T12:05:00.079Z,100.00
2024-02-13T12:07:02.020Z,98.59
2024-02-13T12:09:03.941Z,97.49
2024-02-13T12:11:05.943Z,95.14
2024-02-13T12:13:07.609Z,100.00
2024-02-13T12:15:09.801Z,97.71
2024-02-13T12:17:12.287Z,97.83
2024-02-13T12:19:15.665Z,97.15
2024-02-13T12:21:17.171Z,97.06
2024-02-13T12:23:19.175Z,97.62
2024-02-13T12:25:20.936Z,99.56
2024-02-13T12:27:22.415Z,100.00
2024-02-13T12:29:25.529Z,100.00
2024-02-13T12:31:29.365Z,100.00
2024-02-13T12:33:31.280Z,100.00
2024-02-13T12:35:33.587Z,100.00
2024-02-13T12:37:35.294Z,100.00
2024-02-13T12:39:36.927Z,100.00
2024-02-13T12:41:38.608Z,100.00
2024-02-13T12:43:40.232Z,100.00
2024-02-13T12:45:44.874Z,100.00
2024-02-13T12:47:47.210Z,100.00
2024-02-13T12:49:49.315Z,100.00
2024-02-13T12:51:50.960Z,100.00
2024-02-13T12:53:52.696Z,100.00
2024-02-13T12:55:54.327Z,100.00
2024-02-13T12:57:55.797Z,100.00
2024-02-13T12:59:57.528Z,100.00
2024-02-13T13:01:59.397Z,100.00
2024-02-13T13:04:00.915Z,100.00
2024-02-13T13:06:02.745Z,100.00
2024-02-13T13:08:04.676Z,100.00
2024-02-13T13:10:06.607Z,100.00
2024-02-13T13:12:09.813Z,94.46
2024-02-13T13:14:13.529Z,98.21
2024-02-13T13:16:14.959Z,98.39
2024-02-13T13:18:17.994Z,98.40
2024-02-13T13:20:21.288Z,97.05
2024-02-13T13:22:22.786Z,94.97
2024-02-13T13:24:24.427Z,92.63
2024-02-13T13:26:26.884Z,97.92
2024-02-13T13:28:28.514Z,96.87
2024-02-13T13:30:30.407Z,96.70
2024-02-13T13:32:32.424Z,98.75
2024-02-13T13:34:34.199Z,96.84
2024-02-13T13:36:36.422Z,99.14
2024-02-13T13:38:38.023Z,98.25
2024-02-13T13:40:40.116Z,100.00
2024-02-13T13:42:41.734Z,100.00
2024-02-13T13:44:43.227Z,100.00
2024-02-13T13:46:44.702Z,100.00
2024-02-13T13:48:46.430Z,100.00
2024-02-13T13:50:48.772Z,100.00
2024-02-13T13:52:52.160Z,100.00
2024-02-13T13:54:53.886Z,100.00
2024-02-13T13:56:55.442Z,100.00
2024-02-13T13:58:57.041Z,100.00
2024-02-13T14:01:02.061Z,99.96
2024-02-13T14:03:06.778Z,99.70
2024-02-13T14:05:08.429Z,98.54
2024-02-13T14:07:09.945Z,100.00
2024-02-13T14:09:11.739Z,99.29
2024-02-13T14:11:13.208Z,100.00
2024-02-13T14:13:14.839Z,100.00
2024-02-13T14:15:16.660Z,99.44
2024-02-13T14:17:18.257Z,96.19
2024-02-13T14:19:20.094Z,96.24
2024-02-13T14:21:22.126Z,100.00
2024-02-13T14:23:23.712Z,96.50
2024-02-13T14:25:25.353Z,96.23
2024-02-13T14:27:27.137Z,97.06
2024-02-13T14:29:28.651Z,95.45
2024-02-13T14:31:30.147Z,98.75
2024-02-13T14:33:31.939Z,95.23
2024-02-13T14:35:34.890Z,97.52
2024-02-13T14:37:36.549Z,100.00
2024-02-13T14:39:38.570Z,98.93
2024-02-13T14:41:40.110Z,97.76
2024-02-13T14:43:41.760Z,95.65
2024-02-13T14:45:43.464Z,96.08
2024-02-13T14:47:45.020Z,96.96
2024-02-13T14:49:47.138Z,94.28
2024-02-13T14:51:49.106Z,98.15
2024-02-13T14:53:50.682Z,95.54
2024-02-13T14:55:52.512Z,96.46
2024-02-13T14:58:06.059Z,95.44
2024-02-13T15:00:14.477Z,94.75
2024-02-13T15:02:16.386Z,96.22
2024-02-13T15:04:18.175Z,92.89
2024-02-13T15:06:22.796Z,96.15
2024-02-13T15:08:25.101Z,97.12
2024-02-13T15:10:26.830Z,97.04
2024-02-13T15:12:28.289Z,97.72
2024-02-13T15:14:30.185Z,96.94
2024-02-13T15:16:31.689Z,93.49
2024-02-13T15:18:34.020Z,97.51
2024-02-13T15:20:35.676Z,96.37
2024-02-13T15:22:37.306Z,97.50
2024-02-13T15:24:39.364Z,100.00
2024-02-13T15:26:40.879Z,100.00
2024-02-13T15:28:42.600Z,100.00
2024-02-13T15:30:44.194Z,99.57
2024-02-13T15:32:45.819Z,99.62
2024-02-13T15:34:47.473Z,98.95
2024-02-13T15:36:48.941Z,100.00
2024-02-13T15:38:50.622Z,100.00
2024-02-13T15:40:52.514Z,96.90
2024-02-13T15:42:53.996Z,100.00
2024-02-13T15:44:55.658Z,100.00
2024-02-13T15:46:57.211Z,97.94
2024-02-13T15:48:58.841Z,96.60
2024-02-13T15:51:00.861Z,95.60
2024-02-13T15:53:02.415Z,94.75
2024-02-13T15:55:04.070Z,99.20
2024-02-13T15:57:05.810Z,100.00
2024-02-13T15:59:07.368Z,100.00
2024-02-13T16:01:08.869Z,100.00
2024-02-13T16:03:10.689Z,100.00
2024-02-13T16:05:12.492Z,100.00
2024-02-13T16:07:18.278Z,98.87
2024-02-13T16:09:21.730Z,100.00
2024-02-13T16:11:23.317Z,97.24
2024-02-13T16:13:27.498Z,99.66
2024-02-13T16:15:30.127Z,97.74
2024-02-13T16:17:32.044Z,94.23
2024-02-13T16:19:33.653Z,94.19
2024-02-13T16:21:35.202Z,98.27
2024-02-13T16:23:37.043Z,100.00
2024-02-13T16:25:38.562Z,99.47
2024-02-13T16:27:41.158Z,100.00
2024-02-13T16:29:42.882Z,100.00
2024-02-13T16:31:44.421Z,98.04
2024-02-13T16:33:46.102Z,100.00
2024-02-13T16:35:48.100Z,100.00
2024-02-13T16:37:49.617Z,100.00
2024-02-13T16:39:51.102Z,100.00
2024-02-13T16:41:53.772Z,100.00
2024-02-13T16:43:55.320Z,100.00
2024-02-13T16:45:57.010Z,99.77
2024-02-13T16:47:58.772Z,99.00
2024-02-13T16:50:00.470Z,97.68
2024-02-13T16:52:02.797Z,100.00
2024-02-13T16:54:04.927Z,98.63
2024-02-13T16:56:06.835Z,96.49
2024-02-13T16:58:08.358Z,95.08
2024-02-13T17:00:11.054Z,95.82
2024-02-13T17:02:12.553Z,95.22
2024-02-13T17:04:14.325Z,93.76
2024-02-13T17:06:16.134Z,94.77
2024-02-13T17:08:17.787Z,95.01
2024-02-13T17:10:19.536Z,94.20
2024-02-13T17:12:21.133Z,95.65
2024-02-13T17:14:22.603Z,94.54
2024-02-13T17:16:24.233Z,96.79
2024-02-13T17:18:26.066Z,98.70
2024-02-13T17:20:27.682Z,96.17
2024-02-13T17:22:29.289Z,97.18
2024-02-13T17:24:30.990Z,97.93
2024-02-13T17:26:32.520Z,99.92
2024-02-13T17:28:34.140Z,99.97
2024-02-13T17:30:35.868Z,100.00
2024-02-13T17:32:37.425Z,99.58
2024-02-13T17:34:39.367Z,99.05
2024-02-13T17:36:41.017Z,99.71
2024-02-13T17:38:42.889Z,99.61
2024-02-13T17:40:44.581Z,100.00
2024-02-13T17:42:46.047Z,100.00
2024-02-13T17:44:47.713Z,100.00
2024-02-13T17:46:49.387Z,100.00
2024-02-13T17:48:51.057Z,100.00
2024-02-13T17:50:52.858Z,100.00
2024-02-13T17:52:54.346Z,100.00
2024-02-13T17:54:55.946Z,100.00
2024-02-13T17:56:57.608Z,100.00
2024-02-13T17:58:59.268Z,100.00
2024-02-13T18:01:00.785Z,100.00
2024-02-13T18:03:02.567Z,100.00
2024-02-13T18:05:04.244Z,100.00
2024-02-13T18:07:05.781Z,100.00
2024-02-13T18:09:07.707Z,100.00
2024-02-13T18:11:09.376Z,100.00
2024-02-13T18:13:10.838Z,100.00
2024-02-13T18:15:12.613Z,100.00
2024-02-13T18:17:14.226Z,100.00
2024-02-13T18:19:15.946Z,100.00
2024-02-13T18:21:17.784Z,100.00
2024-02-13T18:23:19.527Z,100.00
2024-02-13T18:25:21.040Z,100.00
2024-02-13T18:27:22.951Z,100.00
2024-02-13T18:29:24.579Z,100.00
2024-02-13T18:31:26.053Z,100.00
2024-02-13T18:33:27.788Z,100.00
2024-02-13T18:35:29.550Z,100.00
2024-02-13T18:37:31.051Z,100.00
2024-02-13T18:39:32.648Z,100.00
2024-02-13T18:41:34.333Z,100.00
2024-02-13T18:43:35.840Z,100.00
2024-02-13T18:45:37.338Z,100.00
2024-02-13T18:47:38.926Z,100.00
2024-02-13T18:49:40.495Z,100.00
2024-02-13T18:51:42.109Z,100.00
2024-02-13T18:53:43.649Z,100.00
2024-02-13T18:55:45.108Z,100.00
2024-02-13T18:57:46.849Z,100.00
2024-02-13T18:59:48.814Z,100.00
2024-02-13T19:01:50.442Z,100.00
2024-02-13T19:03:52.125Z,100.00
2024-02-13T19:05:53.831Z,100.00
2024-02-13T19:07:55.434Z,100.00
2024-02-13T19:09:57.369Z,100.00
2024-02-13T19:11:59.012Z,100.00
2024-02-13T19:14:00.687Z,100.00
2024-02-13T19:16:02.167Z,100.00
2024-02-13T19:18:04.260Z,100.00
2024-02-13T19:20:06.642Z,100.00
2024-02-13T19:22:08.152Z,100.00
2024-02-13T19:24:10.457Z,100.00
2024-02-13T19:26:11.946Z,100.00
2024-02-13T19:28:13.687Z,100.00
2024-02-13T19:30:15.398Z,100.00
2024-02-13T19:32:16.869Z,100.00
2024-02-13T19:34:18.777Z,100.00
2024-02-13T19:36:20.671Z,100.00
2024-02-13T19:38:22.238Z,100.00
2024-02-13T19:40:23.928Z,100.00
2024-02-13T19:42:25.541Z,100.00
2024-02-13T19:44:27.062Z,100.00
2024-02-13T19:46:28.665Z,100.00
2024-02-13T19:48:30.459Z,100.00
2024-02-13T19:50:32.110Z,100.00
2024-02-13T19:52:33.681Z,100.00
2024-02-13T19:54:35.196Z,100.00
2024-02-13T19:56:36.877Z,100.00
2024-02-13T19:58:38.381Z,100.00
2024-02-13T20:00:39.860Z,100.00
2024-02-13T20:02:41.376Z,100.00
2024-02-13T20:04:42.971Z,100.00
2024-02-13T20:06:44.997Z,100.00
2024-02-13T20:08:46.598Z,100.00
2024-02-13T20:10:48.188Z,100.00
2024-02-13T20:12:50.068Z,100.00
2024-02-13T20:14:51.600Z,100.00
2024-02-13T20:16:53.094Z,100.00
2024-02-13T20:18:54.946Z,100.00
2024-02-13T20:20:56.521Z,100.00
2024-02-13T20:22:58.129Z,100.00
2024-02-13T20:24:59.604Z,100.00
2024-02-13T20:27:02.001Z,100.00
2024-02-13T20:29:03.642Z,100.00
2024-02-13T20:31:05.156Z,100.00
2024-02-13T20:33:06.714Z,100.00
2024-02-13T20:35:08.634Z,100.00
2024-02-13T20:37:10.780Z,100.00
2024-02-13T20:39:12.309Z,100.00
2024-02-13T20:41:13.995Z,100.00
2024-02-13T20:43:15.650Z,100.00
2024-02-13T20:45:22.378Z,100.00
2024-02-13T20:47:25.655Z,100.00
2024-02-13T20:49:27.277Z,100.00
2024-02-13T20:51:32.833Z,100.00
2024-02-13T20:53:34.481Z,100.00
2024-02-13T20:55:35.973Z,100.00
2024-02-13T20:57:37.423Z,100.00
2024-02-13T20:59:39.051Z,100.00
2024-02-13T21:01:40.695Z,100.00
2024-02-13T21:03:42.168Z,100.00
2024-02-13T21:05:43.708Z,100.00
2024-02-13T21:07:45.337Z,100.00
2024-02-13T21:09:47.419Z,100.00
2024-02-13T21:11:49.066Z,100.00
2024-02-13T21:13:50.697Z,100.00
2024-02-13T21:15:52.164Z,100.00
2024-02-13T21:17:53.872Z,100.00
2024-02-13T21:19:55.595Z,100.00
2024-02-13T21:21:57.118Z,100.00
2024-02-13T21:23:58.648Z,100.00
2024-02-13T21:26:00.129Z,100.00
2024-02-13T21:28:01.575Z,100.00
2024-02-13T21:30:03.777Z,100.00
2024-02-13T21:32:05.620Z,100.00
2024-02-13T21:34:07.563Z,100.00
2024-02-13T21:36:09.664Z,100.00
2024-02-13T21:38:14.373Z,100.00
2024-02-13T21:40:16.262Z,100.00
2024-02-13T21:42:18.002Z,100.00
2024-02-13T21:44:19.551Z,100.00
2024-02-13T21:46:21.038Z,100.00
2024-02-13T21:48:22.919Z,100.00
2024-02-13T21:50:24.761Z,100.00
2024-02-13T21:52:26.289Z,100.00
2024-02-13T21:54:28.079Z,100.00
2024-02-13T21:56:29.711Z,100.00
2024-02-13T21:58:31.241Z,100.00
2024-02-13T22:00:32.981Z,100.00
2024-02-13T22:02:34.887Z,100.00
2024-02-13T22:04:36.428Z,100.00
2024-02-13T22:06:38.025Z,100.00
2024-02-13T22:08:39.737Z,100.00
2024-02-13T22:10:41.212Z,100.00
2024-02-13T22:12:45.247Z,100.00
2024-02-13T22:14:48.669Z,100.00
2024-02-13T22:16:50.129Z,100.00
2024-02-13T22:18:51.979Z,100.00
2024-02-13T22:20:54.095Z,100.00
2024-02-13T22:22:55.718Z,100.00
2024-02-13T22:24:57.373Z,100.00
2024-02-13T22:26:59.317Z,100.00
2024-02-13T22:29:00.834Z,100.00
2024-02-13T22:31:02.468Z,100.00
2024-02-13T22:33:04.257Z,100.00
2024-02-13T22:35:06.404Z,100.00
2024-02-13T22:37:08.100Z,100.00
2024-02-13T22:39:09.848Z,100.00
2024-02-13T22:41:11.597Z,100.00
2024-02-13T22:43:13.091Z,100.00
2024-02-13T22:45:14.650Z,100.00
2024-02-13T22:47:16.262Z,100.00
2024-02-13T22:49:17.767Z,100.00
2024-02-13T22:51:19.501Z,100.00
2024-02-13T22:53:21.102Z,100.00
2024-02-13T22:55:22.683Z,100.00
2024-02-13T22:57:24.420Z,100.00
2024-02-13T22:59:26.042Z,100.00
2024-02-13T23:01:27.647Z,100.00
2024-02-13T23:03:35.413Z,100.00
2024-02-13T23:05:37.124Z,100.00
2024-02-13T23:07:45.328Z,100.00
2024-02-13T23:09:47.331Z,100.00
2024-02-13T23:11:48.976Z,100.00
2024-02-13T23:13:51.532Z,100.00
2024-02-13T23:15:53.717Z,100.00
2024-02-13T23:17:55.515Z,100.00
2024-02-13T23:19:57.132Z,100.00
2024-02-13T23:21:58.757Z,100.00
2024-02-13T23:24:00.690Z,100.00
2024-02-13T23:26:02.390Z,100.00
2024-02-13T23:28:04.662Z,100.00
2024-02-13T23:30:07.314Z,100.00
2024-02-13T23:32:08.835Z,100.00
2024-02-13T23:34:10.672Z,100.00
2024-02-13T23:36:12.348Z,100.00
2024-02-13T23:38:13.938Z,100.00
2024-02-13T23:40:17.765Z,100.00
2024-02-13T23:42:19.420Z,100.00
2024-02-13T23:44:20.857Z,100.00
2024-02-13T23:46:22.476Z,100.00
2024-02-13T23:48:24.207Z,100.00
2024-02-13T23:50:25.804Z,100.00
2024-02-13T23:52:27.429Z,100.00
2024-02-13T23:54:29.006Z,100.00
2024-02-13T23:56:30.511Z,100.00
2024-02-13T23:58:32.260Z,100.00
